To NAV CANADA Home Page Login to a new session Search on AWWS site Feedback and Comments Disclaimer Vers la page française équivalente Tips FAQ What's new on the site To the Forecasts and Observations / NOTAM section To "File a Flight Plan" website Publications and other links Update of the User's profile FIC Telephone Numbers My Weather Data Folder Route Weather Data Regional Weather Data Local Weather Data To the Forecasts and Observations / NOTAM section
Request Generated 03/06/2015 at 07:24:55 UTC . Weather information available at that time is displayed.

METAR/TAF

ST. JOHN'S/ST. JOHN'S INTL/NL    

METAR CYYT 060700Z 30017G23KT 15SM SCT030 BKN170 M11/M17 A2974 RMK
SC3AC4 SLP079=
METAR CYYT 060600Z 29020G26KT 15SM SCT028 BKN240 M11/M16 A2972 RMK
SC4CI3 PRESFR SLP072=
METAR CYYT 060500Z 29020G28KT 15SM FEW030 BKN240 M10/M16 A2972 RMK
SC1CI5 PRESRR SLP074=

TAF CYYT 060538Z 0606/0706 29020G30KT P6SM FEW030 BKN240 TEMPO
0606/0615 6SM -SN BLSN BKN030
FM061500 29020G30KT P6SM SCT030
FM070200 29015G25KT P6SM BKN020
RMK NXT FCST BY 061200Z=
Your time UTC time
Weather data provided by Environment Canada and NAV CANADA